sensor_id;sensor_type;location;lat;lon;timestamp;pressure;altitude;pressure_sealevel;temperature;humidity
4617;BME280;2321;42.704;23.384;2023-03-01T00:02:06;95936.88;;;7.74;nan
4617;BME280;2321;42.704;23.384;2023-03-01T00:04:33;95930.91;;;7.72;nan
4617;BME280;2321;42.704;23.384;2023-03-01T00:07:01;95923.44;;;7.67;nan
4617;BME280;2321;42.704;23.384;2023-03-01T00:09:27;95928.41;;;7.70;nan
4617;BME280;2321;42.704;23.384;2023-03-01T00:11:54;95923.63;;;7.74;nan
4617;BME280;2321;42.704;23.384;2023-03-01T00:14:23;95922.47;;;7.77;nan
4617;BME280;2321;42.704;23.384;2023-03-01T00:16:49;95922.16;;;7.80;nan
4617;BME280;2321;42.704;23.384;2023-03-01T00:19:18;95931.13;;;7.79;nan
4617;BME280;2321;42.704;23.384;2023-03-01T00:21:45;95918.66;;;7.79;nan
4617;BME280;2321;42.704;23.384;2023-03-01T00:24:12;95920.16;;;7.73;nan
4617;BME280;2321;42.704;23.384;2023-03-01T00:26:39;95914.53;;;7.77;nan
4617;BME280;2321;42.704;23.384;2023-03-01T00:29:06;95907.72;;;7.74;nan
4617;BME280;2321;42.704;23.384;2023-03-01T00:31:34;95910.03;;;7.69;nan
4617;BME280;2321;42.704;23.384;2023-03-01T00:34:03;95909.88;;;7.70;nan
4617;BME280;2321;42.704;23.384;2023-03-01T00:36:32;95908.38;;;7.68;nan
4617;BME280;2321;42.704;23.384;2023-03-01T00:39:00;95909.53;;;7.65;nan
4617;BME280;2321;42.704;23.384;2023-03-01T00:41:27;95903.91;;;7.68;nan
4617;BME280;2321;42.704;23.384;2023-03-01T00:43:54;95896.09;;;7.67;nan
4617;BME280;2321;42.704;23.384;2023-03-01T00:46:23;95889.16;;;7.66;nan
4617;BME280;2321;42.704;23.384;2023-03-01T00:48:51;95891.28;;;7.62;nan
4617;BME280;2321;42.704;23.384;2023-03-01T00:51:20;95895.09;;;7.59;nan
4617;BME280;2321;42.704;23.384;2023-03-01T00:53:50;95890.25;;;7.46;nan
4617;BME280;2321;42.704;23.384;2023-03-01T00:56:17;95896.06;;;7.50;nan
4617;BME280;2321;42.704;23.384;2023-03-01T00:58:44;95895.53;;;7.46;nan
4617;BME280;2321;42.704;23.384;2023-03-01T01:01:13;95888.09;;;7.41;nan
4617;BME280;2321;42.704;23.384;2023-03-01T01:03:45;95886.59;;;7.39;nan
4617;BME280;2321;42.704;23.384;2023-03-01T01:06:18;95879.63;;;7.38;nan
4617;BME280;2321;42.704;23.384;2023-03-01T01:08:45;95888.72;;;7.35;nan
4617;BME280;2321;42.704;23.384;2023-03-01T01:11:13;95893.84;;;7.37;nan
4617;BME280;2321;42.704;23.384;2023-03-01T01:13:40;95894.16;;;7.34;nan
4617;BME280;2321;42.704;23.384;2023-03-01T01:16:08;95890.38;;;7.36;nan
4617;BME280;2321;42.704;23.384;2023-03-01T01:18:35;95893.84;;;7.37;nan
4617;BME280;2321;42.704;23.384;2023-03-01T01:21:06;95877.13;;;7.36;nan
4617;BME280;2321;42.704;23.384;2023-03-01T01:23:35;95891.91;;;7.39;nan
4617;BME280;2321;42.704;23.384;2023-03-01T01:26:06;95882.09;;;7.39;nan
4617;BME280;2321;42.704;23.384;2023-03-01T01:28:33;95882.28;;;7.38;nan
4617;BME280;2321;42.704;23.384;2023-03-01T01:31:00;95884.75;;;7.39;nan
4617;BME280;2321;42.704;23.384;2023-03-01T01:33:27;95891.06;;;7.38;nan
4617;BME280;2321;42.704;23.384;2023-03-01T01:35:54;95886.41;;;7.40;nan
4617;BME280;2321;42.704;23.384;2023-03-01T01:38:21;95894.22;;;7.42;nan
4617;BME280;2321;42.704;23.384;2023-03-01T01:40:50;95889.91;;;7.41;nan
4617;BME280;2321;42.704;23.384;2023-03-01T01:43:20;95904.00;;;7.41;nan
4617;BME280;2321;42.704;23.384;2023-03-01T01:45:48;95902.97;;;7.43;nan
4617;BME280;2321;42.704;23.384;2023-03-01T01:48:19;95905.81;;;7.49;nan
4617;BME280;2321;42.704;23.384;2023-03-01T01:50:54;95896.69;;;7.44;nan
4617;BME280;2321;42.704;23.384;2023-03-01T01:53:22;95899.69;;;7.49;nan
4617;BME280;2321;42.704;23.384;2023-03-01T01:55:55;95901.19;;;7.51;nan
4617;BME280;2321;42.704;23.384;2023-03-01T01:58:26;95896.91;;;7.50;nan
4617;BME280;2321;42.704;23.384;2023-03-01T02:00:55;95891.28;;;7.54;nan
4617;BME280;2321;42.704;23.384;2023-03-01T02:03:25;95893.75;;;7.55;nan
4617;BME280;2321;42.704;23.384;2023-03-01T02:05:57;95891.09;;;7.55;nan
4617;BME280;2321;42.704;23.384;2023-03-01T02:08:29;95872.34;;;7.48;nan
4617;BME280;2321;42.704;23.384;2023-03-01T02:10:59;95888.63;;;7.54;nan
4617;BME280;2321;42.704;23.384;2023-03-01T02:13:26;95887.13;;;7.51;nan
4617;BME280;2321;42.704;23.384;2023-03-01T02:15:54;95876.53;;;7.51;nan
4617;BME280;2321;42.704;23.384;2023-03-01T02:18:21;95878.69;;;7.56;nan
4617;BME280;2321;42.704;23.384;2023-03-01T02:21:00;95879.34;;;7.49;nan
4617;BME280;2321;42.704;23.384;2023-03-01T02:23:29;95877.50;;;7.50;nan
4617;BME280;2321;42.704;23.384;2023-03-01T02:26:01;95876.88;;;7.56;nan
4617;BME280;2321;42.704;23.384;2023-03-01T02:28:32;95881.19;;;7.57;nan
4617;BME280;2321;42.704;23.384;2023-03-01T02:31:00;95879.66;;;7.55;nan
4617;BME280;2321;42.704;23.384;2023-03-01T02:33:48;95881.00;;;7.50;nan
4617;BME280;2321;42.704;23.384;2023-03-01T02:36:17;95877.50;;;7.50;nan
4617;BME280;2321;42.704;23.384;2023-03-01T02:38:46;95888.25;;;7.48;nan
4617;BME280;2321;42.704;23.384;2023-03-01T02:41:15;95883.78;;;7.49;nan
4617;BME280;2321;42.704;23.384;2023-03-01T02:43:44;95891.44;;;7.52;nan
4617;BME280;2321;42.704;23.384;2023-03-01T02:46:15;95889.47;;;7.54;nan
4617;BME280;2321;42.704;23.384;2023-03-01T02:48:44;95884.63;;;7.49;nan
4617;BME280;2321;42.704;23.384;2023-03-01T02:51:21;95876.69;;;7.49;nan
4617;BME280;2321;42.704;23.384;2023-03-01T02:53:58;95877.97;;;7.45;nan
4617;BME280;2321;42.704;23.384;2023-03-01T02:56:30;95878.16;;;7.44;nan
4617;BME280;2321;42.704;23.384;2023-03-01T02:58:58;95880.81;;;7.44;nan
4617;BME280;2321;42.704;23.384;2023-03-01T03:01:27;95873.84;;;7.43;nan
4617;BME280;2321;42.704;23.384;2023-03-01T03:04:03;95875.84;;;7.49;nan
4617;BME280;2321;42.704;23.384;2023-03-01T03:06:31;95884.31;;;7.52;nan
4617;BME280;2321;42.704;23.384;2023-03-01T03:08:58;95882.81;;;7.50;nan
4617;BME280;2321;42.704;23.384;2023-03-01T03:11:25;95878.81;;;7.46;nan
4617;BME280;2321;42.704;23.384;2023-03-01T03:13:51;95877.31;;;7.43;nan
4617;BME280;2321;42.704;23.384;2023-03-01T03:16:20;95880.81;;;7.44;nan
4617;BME280;2321;42.704;23.384;2023-03-01T03:18:47;95880.97;;;7.42;nan
4617;BME280;2321;42.704;23.384;2023-03-01T03:21:14;95891.09;;;7.47;nan
4617;BME280;2321;42.704;23.384;2023-03-01T03:23:41;95887.09;;;7.43;nan
4617;BME280;2321;42.704;23.384;2023-03-01T03:26:08;95896.69;;;7.44;nan
4617;BME280;2321;42.704;23.384;2023-03-01T03:28:39;95884.94;;;7.38;nan
4617;BME280;2321;42.704;23.384;2023-03-01T03:31:06;95892.56;;;7.41;nan
4617;BME280;2321;42.704;23.384;2023-03-01T03:33:35;95889.25;;;7.39;nan
4617;BME280;2321;42.704;23.384;2023-03-01T03:36:02;95895.66;;;7.36;nan
4617;BME280;2321;42.704;23.384;2023-03-01T03:38:29;95902.63;;;7.37;nan
4617;BME280;2321;42.704;23.384;2023-03-01T03:41:01;95892.03;;;7.37;nan
4617;BME280;2321;42.704;23.384;2023-03-01T03:43:31;95895.00;;;7.34;nan
4617;BME280;2321;42.704;23.384;2023-03-01T03:45:59;95894.03;;;7.35;nan
4617;BME280;2321;42.704;23.384;2023-03-01T03:48:26;95902.97;;;7.34;nan
4617;BME280;2321;42.704;23.384;2023-03-01T03:50:55;95894.88;;;7.36;nan
4617;BME280;2321;42.704;23.384;2023-03-01T03:53:24;95898.31;;;7.36;nan
4617;BME280;2321;42.704;23.384;2023-03-01T03:56:10;95908.59;;;7.39;nan
4617;BME280;2321;42.704;23.384;2023-03-01T03:58:37;95907.09;;;7.37;nan
4617;BME280;2321;42.704;23.384;2023-03-01T04:01:05;95901.59;;;7.30;nan
4617;BME280;2321;42.704;23.384;2023-03-01T04:03:49;95902.13;;;7.34;nan
4617;BME280;2321;42.704;23.384;2023-03-01T04:06:21;95902.28;;;7.32;nan
4617;BME280;2321;42.704;23.384;2023-03-01T04:08:48;95902.97;;;7.34;nan
4617;BME280;2321;42.704;23.384;2023-03-01T04:11:25;95910.75;;;7.36;nan
4617;BME280;2321;42.704;23.384;2023-03-01T04:13:56;95910.91;;;7.34;nan
4617;BME280;2321;42.704;23.384;2023-03-01T04:16:24;95910.91;;;7.34;nan
4617;BME280;2321;42.704;23.384;2023-03-01T04:18:51;95911.56;;;7.36;nan
4617;BME280;2321;42.704;23.384;2023-03-01T04:21:21;95907.59;;;7.32;nan
4617;BME280;2321;42.704;23.384;2023-03-01T04:23:48;95902.28;;;7.32;nan
4617;BME280;2321;42.704;23.384;2023-03-01T04:26:18;95900.81;;;7.38;nan
4617;BME280;2321;42.704;23.384;2023-03-01T04:28:45;95897.66;;;7.34;nan
4617;BME280;2321;42.704;23.384;2023-03-01T04:31:14;95899.31;;;7.35;nan
4617;BME280;2321;42.704;23.384;2023-03-01T04:33:45;95902.28;;;7.32;nan
4617;BME280;2321;42.704;23.384;2023-03-01T04:36:14;95912.19;;;7.30;nan
4617;BME280;2321;42.704;23.384;2023-03-01T04:38:43;95902.94;;;7.26;nan
4617;BME280;2321;42.704;23.384;2023-03-01T04:41:13;95914.19;;;7.28;nan
4617;BME280;2321;42.704;23.384;2023-03-01T04:43:41;95902.28;;;7.32;nan
4617;BME280;2321;42.704;23.384;2023-03-01T04:46:10;95894.16;;;7.25;nan
4617;BME280;2321;42.704;23.384;2023-03-01T04:48:38;95891.63;;;7.24;nan
4617;BME280;2321;42.704;23.384;2023-03-01T04:51:06;95890.97;;;7.22;nan
4617;BME280;2321;42.704;23.384;2023-03-01T04:53:34;95897.28;;;7.21;nan
4617;BME280;2321;42.704;23.384;2023-03-01T04:56:04;95890.97;;;7.22;nan
4617;BME280;2321;42.704;23.384;2023-03-01T04:58:32;95891.81;;;7.22;nan
4617;BME280;2321;42.704;23.384;2023-03-01T05:00:58;95891.97;;;7.21;nan
4617;BME280;2321;42.704;23.384;2023-03-01T05:03:25;95894.78;;;7.19;nan
4617;BME280;2321;42.704;23.384;2023-03-01T05:05:53;95891.81;;;7.22;nan
4617;BME280;2321;42.704;23.384;2023-03-01T05:08:20;95894.94;;;7.17;nan
4617;BME280;2321;42.704;23.384;2023-03-01T05:10:49;95898.56;;;7.16;nan
4617;BME280;2321;42.704;23.384;2023-03-01T05:13:18;95900.38;;;7.16;nan
4617;BME280;2321;42.704;23.384;2023-03-01T05:15:47;95899.88;;;7.12;nan
4617;BME280;2321;42.704;23.384;2023-03-01T05:18:15;95901.75;;;7.20;nan
4617;BME280;2321;42.704;23.384;2023-03-01T05:20:42;95902.91;;;7.17;nan
4617;BME280;2321;42.704;23.384;2023-03-01T05:23:10;95901.38;;;7.15;nan
4617;BME280;2321;42.704;23.384;2023-03-01T05:25:37;95898.22;;;7.11;nan
4617;BME280;2321;42.704;23.384;2023-03-01T05:28:06;95904.81;;;7.07;nan
4617;BME280;2321;42.704;23.384;2023-03-01T05:30:36;95895.19;;;7.06;nan
4617;BME280;2321;42.704;23.384;2023-03-01T05:33:04;95903.31;;;7.04;nan
4617;BME280;2321;42.704;23.384;2023-03-01T05:35:39;95898.84;;;7.05;nan
4617;BME280;2321;42.704;23.384;2023-03-01T05:38:06;95901.81;;;7.02;nan
4617;BME280;2321;42.704;23.384;2023-03-01T05:40:33;95895.03;;;6.99;nan
4617;BME280;2321;42.704;23.384;2023-03-01T05:43:00;95898.47;;;7.00;nan
4617;BME280;2321;42.704;23.384;2023-03-01T05:45:31;95898.66;;;6.98;nan
4617;BME280;2321;42.704;23.384;2023-03-01T05:48:00;95910.22;;;6.97;nan
4617;BME280;2321;42.704;23.384;2023-03-01T05:50:28;95916.34;;;6.97;nan
4617;BME280;2321;42.704;23.384;2023-03-01T05:53:00;95910.69;;;6.92;nan
4617;BME280;2321;42.704;23.384;2023-03-01T05:55:29;95913.03;;;6.95;nan
4617;BME280;2321;42.704;23.384;2023-03-01T05:57:58;95916.53;;;6.96;nan
4617;BME280;2321;42.704;23.384;2023-03-01T06:00:25;95925.97;;;6.99;nan
4617;BME280;2321;42.704;23.384;2023-03-01T06:02:53;95931.09;;;7.00;nan
4617;BME280;2321;42.704;23.384;2023-03-01T06:05:22;95933.06;;;6.98;nan
4617;BME280;2321;42.704;23.384;2023-03-01T06:07:49;95928.59;;;6.99;nan
4617;BME280;2321;42.704;23.384;2023-03-01T06:10:17;95935.94;;;7.05;nan
4617;BME280;2321;42.704;23.384;2023-03-01T06:12:44;95937.22;;;7.01;nan
4617;BME280;2321;42.704;23.384;2023-03-01T06:15:11;95943.19;;;7.03;nan
4617;BME280;2321;42.704;23.384;2023-03-01T06:17:41;95946.88;;;7.10;nan
4617;BME280;2321;42.704;23.384;2023-03-01T06:20:14;95948.22;;;7.14;nan
4617;BME280;2321;42.704;23.384;2023-03-01T06:22:45;95943.59;;;7.16;nan
4617;BME280;2321;42.704;23.384;2023-03-01T06:25:13;95942.94;;;7.14;nan
4617;BME280;2321;42.704;23.384;2023-03-01T06:27:40;95942.25;;;7.12;nan
4617;BME280;2321;42.704;23.384;2023-03-01T06:30:09;95941.56;;;7.10;nan
4617;BME280;2321;42.704;23.384;2023-03-01T06:32:36;95942.25;;;7.12;nan
4617;BME280;2321;42.704;23.384;2023-03-01T06:35:09;95945.38;;;7.07;nan
4617;BME280;2321;42.704;23.384;2023-03-01T06:37:37;95940.91;;;7.08;nan
4617;BME280;2321;42.704;23.384;2023-03-01T06:40:07;95941.81;;;7.25;nan
4617;BME280;2321;42.704;23.384;2023-03-01T06:42:37;95940.16;;;7.24;nan
4617;BME280;2321;42.704;23.384;2023-03-01T06:45:08;95933.34;;;7.22;nan
4617;BME280;2321;42.704;23.384;2023-03-01T06:47:36;95936.41;;;7.08;nan
4617;BME280;2321;42.704;23.384;2023-03-01T06:50:03;95937.94;;;7.11;nan
4617;BME280;2321;42.704;23.384;2023-03-01T06:52:30;95939.75;;;7.11;nan
4617;BME280;2321;42.704;23.384;2023-03-01T06:54:57;95937.94;;;7.11;nan
4617;BME280;2321;42.704;23.384;2023-03-01T06:57:28;95942.94;;;7.14;nan
4617;BME280;2321;42.704;23.384;2023-03-01T07:00:02;95944.13;;;7.20;nan
4617;BME280;2321;42.704;23.384;2023-03-01T07:02:36;95949.91;;;7.24;nan
4617;BME280;2321;42.704;23.384;2023-03-01T07:05:04;95941.03;;;7.33;nan
4617;BME280;2321;42.704;23.384;2023-03-01T07:07:31;95946.69;;;7.38;nan
4617;BME280;2321;42.704;23.384;2023-03-01T07:09:57;95944.41;;;7.44;nan
4617;BME280;2321;42.704;23.384;2023-03-01T07:12:26;95943.56;;;7.43;nan
4617;BME280;2321;42.704;23.384;2023-03-01T07:14:53;95945.53;;;7.41;nan
4617;BME280;2321;42.704;23.384;2023-03-01T07:17:19;95942.41;;;7.46;nan
4617;BME280;2321;42.704;23.384;2023-03-01T07:19:46;95941.78;;;7.52;nan
4617;BME280;2321;42.704;23.384;2023-03-01T07:22:13;95936.47;;;7.52;nan
4617;BME280;2321;42.704;23.384;2023-03-01T07:24:40;95933.34;;;7.57;nan
4617;BME280;2321;42.704;23.384;2023-03-01T07:27:08;95935.84;;;7.58;nan
4617;BME280;2321;42.704;23.384;2023-03-01T07:29:37;95929.91;;;7.65;nan
4617;BME280;2321;42.704;23.384;2023-03-01T07:32:05;95929.75;;;7.66;nan
4617;BME280;2321;42.704;23.384;2023-03-01T07:34:32;95927.25;;;7.65;nan
4617;BME280;2321;42.704;23.384;2023-03-01T07:36:59;95933.22;;;7.67;nan
4617;BME280;2321;42.704;23.384;2023-03-01T07:39:26;95926.94;;;7.68;nan
4617;BME280;2321;42.704;23.384;2023-03-01T07:41:53;95928.94;;;7.74;nan
4617;BME280;2321;42.704;23.384;2023-03-01T07:44:20;95937.06;;;7.72;nan
4617;BME280;2321;42.704;23.384;2023-03-01T07:46:48;95938.69;;;7.73;nan
4617;BME280;2321;42.704;23.384;2023-03-01T07:49:15;95934.56;;;7.71;nan
4617;BME280;2321;42.704;23.384;2023-03-01T07:51:43;95927.94;;;7.75;nan
4617;BME280;2321;42.704;23.384;2023-03-01T07:54:10;95929.97;;;7.81;nan
4617;BME280;2321;42.704;23.384;2023-03-01T07:56:36;95924.66;;;7.90;nan
4617;BME280;2321;42.704;23.384;2023-03-01T07:59:03;95923.69;;;7.91;nan
4617;BME280;2321;42.704;23.384;2023-03-01T08:01:30;95914.41;;;7.95;nan
4617;BME280;2321;42.704;23.384;2023-03-01T08:03:58;95915.75;;;7.99;nan
4617;BME280;2321;42.704;23.384;2023-03-01T08:06:25;95919.88;;;8.02;nan
4617;BME280;2321;42.704;23.384;2023-03-01T08:08:52;95919.75;;;8.12;nan
4617;BME280;2321;42.704;23.384;2023-03-01T08:11:21;95913.09;;;8.16;nan
4617;BME280;2321;42.704;23.384;2023-03-01T08:13:48;95921.25;;;8.23;nan
4617;BME280;2321;42.704;23.384;2023-03-01T08:16:15;95916.94;;;8.30;nan
4617;BME280;2321;42.704;23.384;2023-03-01T08:18:43;95919.94;;;8.35;nan
4617;BME280;2321;42.704;23.384;2023-03-01T08:21:13;95905.81;;;8.35;nan
4617;BME280;2321;42.704;23.384;2023-03-01T08:23:40;95917.28;;;8.44;nan
4617;BME280;2321;42.704;23.384;2023-03-01T08:26:08;95911.97;;;8.44;nan
4617;BME280;2321;42.704;23.384;2023-03-01T08:28:36;95914.47;;;8.45;nan
4617;BME280;2321;42.704;23.384;2023-03-01T08:31:03;95912.31;;;8.49;nan
4617;BME280;2321;42.704;23.384;2023-03-01T08:33:39;95923.44;;;8.61;nan
4617;BME280;2321;42.704;23.384;2023-03-01T08:36:06;95917.28;;;8.69;nan
4617;BME280;2321;42.704;23.384;2023-03-01T08:38:34;95913.31;;;8.73;nan
4617;BME280;2321;42.704;23.384;2023-03-01T08:41:02;95909.00;;;8.72;nan
4617;BME280;2321;42.704;23.384;2023-03-01T08:43:30;95911.16;;;8.77;nan
4617;BME280;2321;42.704;23.384;2023-03-01T08:45:57;95910.00;;;8.79;nan
4617;BME280;2321;42.704;23.384;2023-03-01T08:48:24;95909.47;;;8.84;nan
4617;BME280;2321;42.704;23.384;2023-03-01T08:50:51;95918.09;;;8.95;nan
4617;BME280;2321;42.704;23.384;2023-03-01T08:53:18;95915.28;;;9.04;nan
4617;BME280;2321;42.704;23.384;2023-03-01T08:55:46;95917.06;;;9.12;nan
4617;BME280;2321;42.704;23.384;2023-03-01T08:58:13;95918.72;;;9.13;nan
4617;BME280;2321;42.704;23.384;2023-03-01T09:00:40;95920.03;;;9.18;nan
4617;BME280;2321;42.704;23.384;2023-03-01T09:03:07;95918.41;;;9.17;nan
4617;BME280;2321;42.704;23.384;2023-03-01T09:05:34;95919.34;;;9.24;nan
4617;BME280;2321;42.704;23.384;2023-03-01T09:08:02;95917.38;;;9.26;nan
4617;BME280;2321;42.704;23.384;2023-03-01T09:10:29;95912.84;;;9.35;nan
4617;BME280;2321;42.704;23.384;2023-03-01T09:12:57;95914.84;;;9.33;nan
4617;BME280;2321;42.704;23.384;2023-03-01T09:15:25;95912.38;;;9.31;nan
4617;BME280;2321;42.704;23.384;2023-03-01T09:17:51;95915.38;;;9.28;nan
4617;BME280;2321;42.704;23.384;2023-03-01T09:20:18;95920.16;;;9.33;nan
4617;BME280;2321;42.704;23.384;2023-03-01T09:22:45;95917.84;;;9.30;nan
4617;BME280;2321;42.704;23.384;2023-03-01T09:25:12;95916.34;;;9.27;nan
4617;BME280;2321;42.704;23.384;2023-03-01T09:27:39;95907.72;;;9.25;nan
4617;BME280;2321;42.704;23.384;2023-03-01T09:30:09;95909.41;;;9.18;nan
4617;BME280;2321;42.704;23.384;2023-03-01T09:32:36;95908.06;;;9.22;nan
4617;BME280;2321;42.704;23.384;2023-03-01T09:35:08;95906.56;;;9.28;nan
4617;BME280;2321;42.704;23.384;2023-03-01T09:37:36;95916.34;;;9.27;nan
4617;BME280;2321;42.704;23.384;2023-03-01T09:40:05;95909.03;;;9.29;nan
4617;BME280;2321;42.704;23.384;2023-03-01T09:42:34;95902.75;;;9.22;nan
4617;BME280;2321;42.704;23.384;2023-03-01T09:45:04;95907.25;;;9.21;nan
4617;BME280;2321;42.704;23.384;2023-03-01T09:47:34;95900.44;;;9.19;nan
4617;BME280;2321;42.704;23.384;2023-03-01T09:50:05;95896.63;;;9.21;nan
4617;BME280;2321;42.704;23.384;2023-03-01T09:52:39;95890.13;;;9.24;nan
4617;BME280;2321;42.704;23.384;2023-03-01T09:55:12;95885.50;;;9.26;nan
4617;BME280;2321;42.704;23.384;2023-03-01T09:57:45;95889.63;;;9.29;nan
4617;BME280;2321;42.704;23.384;2023-03-01T10:00:23;95891.94;;;9.32;nan
4617;BME280;2321;42.704;23.384;2023-03-01T10:02:57;95885.59;;;9.33;nan
4617;BME280;2321;42.704;23.384;2023-03-01T10:05:35;95887.44;;;9.32;nan
4617;BME280;2321;42.704;23.384;2023-03-01T10:08:19;95877.81;;;9.31;nan
4617;BME280;2321;42.704;23.384;2023-03-01T10:10:52;95875.81;;;9.33;nan
4617;BME280;2321;42.704;23.384;2023-03-01T10:13:23;95878.47;;;9.33;nan
4617;BME280;2321;42.704;23.384;2023-03-01T10:15:53;95880.78;;;9.36;nan
4617;BME280;2321;42.704;23.384;2023-03-01T10:18:27;95876.59;;;9.42;nan
4617;BME280;2321;42.704;23.384;2023-03-01T10:20:58;95878.09;;;9.45;nan
4617;BME280;2321;42.704;23.384;2023-03-01T10:23:26;95872.91;;;9.52;nan
4617;BME280;2321;42.704;23.384;2023-03-01T10:26:05;95875.06;;;9.56;nan
4617;BME280;2321;42.704;23.384;2023-03-01T10:28:44;95861.94;;;9.55;nan
4617;BME280;2321;42.704;23.384;2023-03-01T10:31:19;95850.13;;;9.57;nan
4617;BME280;2321;42.704;23.384;2023-03-01T10:33:48;95854.09;;;9.62;nan
4617;BME280;2321;42.704;23.384;2023-03-01T10:36:20;95848.78;;;9.62;nan
4617;BME280;2321;42.704;23.384;2023-03-01T10:38:48;95859.06;;;9.65;nan
4617;BME280;2321;42.704;23.384;2023-03-01T10:41:18;95845.41;;;9.68;nan
4617;BME280;2321;42.704;23.384;2023-03-01T10:43:47;95851.84;;;9.74;nan
4617;BME280;2321;42.704;23.384;2023-03-01T10:46:26;95839.41;;;9.74;nan
4617;BME280;2321;42.704;23.384;2023-03-01T10:49:13;95835.50;;;9.85;nan
4617;BME280;2321;42.704;23.384;2023-03-01T10:51:42;95833.19;;;9.82;nan
4617;BME280;2321;42.704;23.384;2023-03-01T10:54:17;95839.34;;;9.83;nan
4617;BME280;2321;42.704;23.384;2023-03-01T10:56:49;95836.72;;;9.74;nan
4617;BME280;2321;42.704;23.384;2023-03-01T10:59:26;95839.47;;;9.57;nan
4617;BME280;2321;42.704;23.384;2023-03-01T11:02:15;95837.72;;;9.50;nan
4617;BME280;2321;42.704;23.384;2023-03-01T11:04:57;95843.06;;;9.41;nan
4617;BME280;2321;42.704;23.384;2023-03-01T11:07:25;95840.75;;;9.38;nan
4617;BME280;2321;42.704;23.384;2023-03-01T11:09:52;95840.91;;;9.36;nan
4617;BME280;2321;42.704;23.384;2023-03-01T11:12:20;95837.09;;;9.39;nan
4617;BME280;2321;42.704;23.384;2023-03-01T11:14:48;95846.38;;;9.43;nan
4617;BME280;2321;42.704;23.384;2023-03-01T11:17:18;95843.38;;;9.46;nan
4617;BME280;2321;42.704;23.384;2023-03-01T11:20:01;95844.78;;;9.57;nan
4617;BME280;2321;42.704;23.384;2023-03-01T11:22:30;95841.31;;;9.57;nan
4617;BME280;2321;42.704;23.384;2023-03-01T11:24:59;95835.19;;;9.56;nan
4617;BME280;2321;42.704;23.384;2023-03-01T11:27:30;95827.72;;;9.52;nan
4617;BME280;2321;42.704;23.384;2023-03-01T11:30:03;95843.16;;;9.56;nan
4617;BME280;2321;42.704;23.384;2023-03-01T11:32:36;95835.22;;;9.48;nan
4617;BME280;2321;42.704;23.384;2023-03-01T11:35:15;95839.03;;;9.45;nan
4617;BME280;2321;42.704;23.384;2023-03-01T11:37:54;95835.75;;;9.43;nan
4617;BME280;2321;42.704;23.384;2023-03-01T11:40:25;95825.94;;;9.44;nan
4617;BME280;2321;42.704;23.384;2023-03-01T11:43:12;95823.78;;;9.47;nan
4617;BME280;2321;42.704;23.384;2023-03-01T11:46:01;95823.22;;;9.52;nan
4617;BME280;2321;42.704;23.384;2023-03-01T11:48:42;95814.84;;;9.64;nan
4617;BME280;2321;42.704;23.384;2023-03-01T11:51:20;95810.84;;;9.68;nan
4617;BME280;2321;42.704;23.384;2023-03-01T11:54:06;95798.84;;;9.72;nan
4617;BME280;2321;42.704;23.384;2023-03-01T11:56:40;95802.31;;;9.73;nan
4617;BME280;2321;42.704;23.384;2023-03-01T11:59:32;95797.91;;;9.88;nan
4617;BME280;2321;42.704;23.384;2023-03-01T12:02:36;95799.38;;;9.91;nan
4617;BME280;2321;42.704;23.384;2023-03-01T12:05:20;95801.53;;;9.96;nan
4617;BME280;2321;42.704;23.384;2023-03-01T12:07:57;95814.63;;;9.97;nan
4617;BME280;2321;42.704;23.384;2023-03-01T12:10:27;95799.50;;;9.98;nan
4617;BME280;2321;42.704;23.384;2023-03-01T12:13:08;95797.66;;;9.98;nan
4617;BME280;2321;42.704;23.384;2023-03-01T12:15:46;95795.28;;;10.03;nan
4617;BME280;2321;42.704;23.384;2023-03-01T12:18:33;95791.56;;;10.13;nan
4617;BME280;2321;42.704;23.384;2023-03-01T12:21:14;95799.66;;;10.20;nan
4617;BME280;2321;42.704;23.384;2023-03-01T12:24:04;95794.06;;;10.15;nan
4617;BME280;2321;42.704;23.384;2023-03-01T12:26:42;95787.22;;;10.12;nan
4617;BME280;2321;42.704;23.384;2023-03-01T12:29:25;95784.56;;;10.12;nan
4617;BME280;2321;42.704;23.384;2023-03-01T12:32:22;95782.59;;;10.14;nan
4617;BME280;2321;42.704;23.384;2023-03-01T12:35:16;95772.78;;;10.15;nan
4617;BME280;2321;42.704;23.384;2023-03-01T12:37:56;95778.91;;;10.15;nan
4617;BME280;2321;42.704;23.384;2023-03-01T12:40:44;95780.09;;;10.12;nan
4617;BME280;2321;42.704;23.384;2023-03-01T12:43:28;95779.56;;;10.17;nan
4617;BME280;2321;42.704;23.384;2023-03-01T12:46:16;95766.81;;;10.28;nan
4617;BME280;2321;42.704;23.384;2023-03-01T12:48:52;95769.09;;;10.31;nan
4617;BME280;2321;42.704;23.384;2023-03-01T12:51:24;95769.56;;;10.34;nan
4617;BME280;2321;42.704;23.384;2023-03-01T12:53:54;95772.59;;;10.31;nan
4617;BME280;2321;42.704;23.384;2023-03-01T12:56:26;95767.28;;;10.31;nan
4617;BME280;2321;42.704;23.384;2023-03-01T12:58:59;95769.56;;;10.34;nan
4617;BME280;2321;42.704;23.384;2023-03-01T13:01:36;95771.41;;;10.34;nan
4617;BME280;2321;42.704;23.384;2023-03-01T13:04:24;95762.44;;;10.35;nan
4617;BME280;2321;42.704;23.384;2023-03-01T13:07:05;95756.75;;;10.38;nan
4617;BME280;2321;42.704;23.384;2023-03-01T13:09:42;95754.06;;;10.38;nan
4617;BME280;2321;42.704;23.384;2023-03-01T13:12:44;95768.22;;;10.39;nan
4617;BME280;2321;42.704;23.384;2023-03-01T13:15:30;95772.44;;;10.33;nan
4617;BME280;2321;42.704;23.384;2023-03-01T13:17:58;95771.03;;;10.37;nan
4617;BME280;2321;42.704;23.384;2023-03-01T13:20:29;95766.81;;;10.43;nan
4617;BME280;2321;42.704;23.384;2023-03-01T13:23:04;95759.50;;;10.45;nan
4617;BME280;2321;42.704;23.384;2023-03-01T13:25:32;95766.66;;;10.44;nan
4617;BME280;2321;42.704;23.384;2023-03-01T13:28:46;95763.00;;;10.45;nan
4617;BME280;2321;42.704;23.384;2023-03-01T13:34:43;95764.63;;;10.46;nan
4617;BME280;2321;42.704;23.384;2023-03-01T13:37:17;95771.00;;;10.45;nan
4617;BME280;2321;42.704;23.384;2023-03-01T13:39:45;95770.22;;;10.37;nan
4617;BME280;2321;42.704;23.384;2023-03-01T13:42:40;95770.78;;;10.32;nan
4617;BME280;2321;42.704;23.384;2023-03-01T13:45:34;95763.97;;;10.29;nan
4617;BME280;2321;42.704;23.384;2023-03-01T13:48:08;95757.09;;;10.35;nan
4617;BME280;2321;42.704;23.384;2023-03-01T13:50:38;95758.75;;;10.36;nan
4617;BME280;2321;42.704;23.384;2023-03-01T13:53:15;95758.75;;;10.36;nan
4617;BME280;2321;42.704;23.384;2023-03-01T13:55:45;95753.81;;;10.33;nan
4617;BME280;2321;42.704;23.384;2023-03-01T13:58:22;95759.84;;;10.27;nan
4617;BME280;2321;42.704;23.384;2023-03-01T14:00:57;95753.94;;;10.16;nan
4617;BME280;2321;42.704;23.384;2023-03-01T14:03:25;95758.06;;;10.19;nan
4617;BME280;2321;42.704;23.384;2023-03-01T14:06:01;95755.97;;;10.14;nan
4617;BME280;2321;42.704;23.384;2023-03-01T14:08:30;95748.34;;;10.11;nan